createdAt,value
2023-04-02T00:01:01.618Z,98919.91
2023-04-02T00:05:20.388Z,98918.81
2023-04-02T00:09:27.768Z,98924.31
2023-04-02T00:13:32.048Z,98931.19
2023-04-02T00:17:33.713Z,98932.03
2023-04-02T00:21:38.869Z,98933.66
2023-04-02T00:25:45.822Z,98937.75
2023-04-02T00:29:53.207Z,98941.88
2023-04-02T00:33:56.078Z,98948.72
2023-04-02T00:37:57.750Z,98948.41
2023-04-02T00:42:05.749Z,98951.41
2023-04-02T00:46:19.476Z,98950.59
2023-04-02T00:50:30.658Z,98945.09
2023-04-02T00:54:39.115Z,98952.75
2023-04-02T00:58:40.994Z,98951.94
2023-04-02T01:02:43.071Z,98953.88
2023-04-02T01:06:46.144Z,98956.84
2023-04-02T01:11:04.556Z,98958.25
2023-04-02T01:15:21.928Z,98961.59
2023-04-02T01:20:01.155Z,98954.69
2023-04-02T01:24:14.718Z,98964.34
2023-04-02T01:28:19.863Z,98973.97
2023-04-02T01:32:23.468Z,98975.34
2023-04-02T01:36:41.477Z,98978.97
2023-04-02T01:40:53.688Z,98985.84
2023-04-02T01:45:04.458Z,98992.19
2023-04-02T01:49:19.209Z,99003.41
2023-04-02T01:53:24.570Z,99006.75
2023-04-02T01:57:28.165Z,99009.22
2023-04-02T02:01:52.104Z,99014.97
2023-04-02T02:05:54.574Z,99021.00
2023-04-02T02:09:58.574Z,99015.75
2023-04-02T02:14:05.651Z,99012.75
2023-04-02T02:18:11.520Z,99027.06
2023-04-02T02:22:27.594Z,99033.13
2023-04-02T02:26:30.299Z,99030.88
2023-04-02T02:30:38.578Z,99042.41
2023-04-02T02:34:49.482Z,99044.31
2023-04-02T02:38:54.781Z,99038.81
2023-04-02T02:43:06.470Z,99043.22
2023-04-02T02:47:20.041Z,99051.47
2023-04-02T02:51:27.281Z,99053.31
2023-04-02T02:55:37.085Z,99056.66
2023-04-02T02:59:46.813Z,99062.41
2023-04-02T03:03:49.567Z,99070.09
2023-04-02T03:07:53.622Z,99067.34
2023-04-02T03:12:08.858Z,99084.91
2023-04-02T03:16:23.525Z,99084.34
2023-04-02T03:20:40.641Z,99089.00
2023-04-02T03:24:57.774Z,99097.81
2023-04-02T03:29:06.337Z,99102.78
2023-04-02T03:33:29.184Z,99103.38
2023-04-02T03:37:47.230Z,99106.63
2023-04-02T03:42:05.600Z,99113.53
2023-04-02T03:46:24.767Z,99125.09
2023-04-02T03:50:41.472Z,99126.44
2023-04-02T03:54:53.303Z,99136.84
2023-04-02T03:59:11.422Z,99142.09
2023-04-02T04:03:17.079Z,99154.44
2023-04-02T04:07:32.730Z,99159.84
2023-04-02T04:11:38.218Z,99164.19
2023-04-02T04:15:46.246Z,99166.44
2023-04-02T04:19:57.970Z,99163.34
2023-04-02T04:24:08.034Z,99169.69
2023-04-02T04:28:22.293Z,99174.91
2023-04-02T04:32:35.626Z,99189.16
2023-04-02T04:36:54.652Z,99185.59
2023-04-02T04:41:12.816Z,99196.25
2023-04-02T04:45:37.072Z,99203.91
2023-04-02T04:49:49.564Z,99212.75
2023-04-02T04:53:55.305Z,99215.22
2023-04-02T04:58:23.293Z,99223.22
2023-04-02T05:02:38.544Z,99224.66
2023-04-02T05:06:45.748Z,99237.28
2023-04-02T05:11:11.708Z,99238.44
2023-04-02T05:15:35.690Z,99241.53
2023-04-02T05:19:59.287Z,99254.75
2023-04-02T05:24:29.852Z,99257.00
2023-04-02T05:28:57.664Z,99252.88
2023-04-02T05:33:21.756Z,99263.97
2023-04-02T05:37:29.368Z,99267.88
2023-04-02T05:41:43.278Z,99272.94
2023-04-02T05:45:52.619Z,99278.25
2023-04-02T05:50:07.377Z,99283.06
2023-04-02T05:54:24.229Z,99296.41
2023-04-02T05:58:45.747Z,99301.25
2023-04-02T06:03:07.669Z,99306.63
2023-04-02T06:07:15.286Z,99310.59
2023-04-02T06:11:42.278Z,99324.44
2023-04-02T06:15:48.630Z,99324.31
2023-04-02T06:20:06.116Z,99334.09
2023-04-02T06:24:12.328Z,99340.22
2023-04-02T06:28:20.257Z,99356.06
2023-04-02T06:32:27.396Z,99354.78
2023-04-02T06:36:30.392Z,99359.78
2023-04-02T06:40:42.589Z,99370.63
2023-04-02T06:44:56.145Z,99376.44
2023-04-02T06:49:41.232Z,99387.75
2023-04-02T06:53:47.376Z,99395.56
2023-04-02T06:57:51.313Z,99403.34
2023-04-02T07:01:59.101Z,99406.09
2023-04-02T07:06:03.019Z,99416.03
2023-04-02T07:10:09.366Z,99422.63
2023-04-02T07:14:13.275Z,99433.47
2023-04-02T07:18:32.437Z,99436.31
2023-04-02T07:22:37.094Z,99440.78
2023-04-02T07:26:39.139Z,99454.69
2023-04-02T07:30:41.419Z,99460.25
2023-04-02T07:34:43.413Z,99475.72
2023-04-02T07:38:45.330Z,99479.88
2023-04-02T07:42:47.165Z,99484.16
2023-04-02T07:46:49.229Z,99488.59
2023-04-02T07:50:51.466Z,99494.72
2023-04-02T07:54:53.128Z,99492.31
2023-04-02T07:58:54.980Z,99501.47
2023-04-02T08:02:57.281Z,99514.50
2023-04-02T08:06:59.233Z,99517.56
2023-04-02T08:11:01.082Z,99525.84
2023-04-02T08:15:06.398Z,99536.53
2023-04-02T08:19:08.811Z,99543.00
2023-04-02T08:27:31.063Z,99558.50
2023-04-02T08:31:34.956Z,99571.28
2023-04-02T08:35:39.629Z,99578.56
2023-04-02T08:39:41.669Z,99588.88
2023-04-02T08:44:14.185Z,99593.88
2023-04-02T08:48:16.914Z,99601.59
2023-04-02T08:52:34.143Z,99618.53
2023-04-02T08:56:43.607Z,99626.66
2023-04-02T09:00:47.211Z,99637.75
2023-04-02T09:04:49.256Z,99653.25
2023-04-02T09:08:54.271Z,99645.50
2023-04-02T09:12:58.725Z,99660.31
2023-04-02T09:17:03.021Z,99675.31
2023-04-02T09:21:28.486Z,99675.44
2023-04-02T09:25:32.384Z,99691.91
2023-04-02T09:29:45.287Z,99682.97
2023-04-02T09:33:49.225Z,99700.66
2023-04-02T09:38:17.341Z,99704.34
2023-04-02T09:42:39.340Z,99714.50
2023-04-02T09:47:04.126Z,99725.63
2023-04-02T09:51:18.511Z,99731.94
2023-04-02T09:55:29.188Z,99732.66
2023-04-02T09:59:31.049Z,99739.44
2023-04-02T10:03:34.555Z,99752.00
2023-04-02T10:07:45.231Z,99765.41
2023-04-02T10:11:49.489Z,99774.47
2023-04-02T10:16:18.606Z,99781.53
2023-04-02T10:20:25.932Z,99795.59
2023-04-02T10:24:28.903Z,99797.88
2023-04-02T10:28:40.410Z,99797.69
2023-04-02T10:32:57.893Z,99810.78
2023-04-02T10:37:08.659Z,99822.31
2023-04-02T10:41:11.657Z,99820.19
2023-04-02T10:45:44.340Z,99824.16
2023-04-02T10:50:07.473Z,99829.91
2023-04-02T10:54:28.116Z,99830.97
2023-04-02T10:58:34.592Z,99847.28
2023-04-02T11:02:41.520Z,99856.47
2023-04-02T11:07:13.863Z,99861.38
2023-04-02T11:11:26.599Z,99873.09
2023-04-02T11:15:30.474Z,99870.72
2023-04-02T11:19:34.601Z,99874.38
2023-04-02T11:23:57.234Z,99886.78
2023-04-02T11:28:33.476Z,99890.22
2023-04-02T11:32:40.704Z,99902.91
2023-04-02T11:36:53.060Z,99913.34
2023-04-02T11:40:56.039Z,99910.59
2023-04-02T11:45:26.627Z,99928.72
2023-04-02T11:49:37.123Z,99935.75
2023-04-02T11:53:43.351Z,99944.19
2023-04-02T11:58:26.849Z,99956.38
2023-04-02T12:02:38.773Z,99957.19
2023-04-02T12:07:07.307Z,99957.78
2023-04-02T12:11:09.250Z,99972.19
2023-04-02T12:15:44.760Z,99975.41
2023-04-02T12:19:49.180Z,99981.13
2023-04-02T12:23:55.167Z,99986.38
2023-04-02T12:28:21.322Z,100002.72
2023-04-02T12:32:29.543Z,99999.41
2023-04-02T12:36:32.902Z,100000.03
2023-04-02T12:40:34.792Z,100013.00
2023-04-02T12:44:36.697Z,100017.19
2023-04-02T12:48:39.622Z,100023.59
2023-04-02T12:52:47.132Z,100029.91
2023-04-02T12:56:52.332Z,100029.25
2023-04-02T13:01:19.277Z,100032.91
2023-04-02T13:05:42.758Z,100041.75
2023-04-02T13:09:55.688Z,100046.00
2023-04-02T13:14:02.828Z,100048.06
2023-04-02T13:18:18.751Z,100050.19
2023-04-02T13:22:31.987Z,100058.97
2023-04-02T13:26:33.878Z,100063.06
2023-04-02T13:30:36.006Z,100061.47
2023-04-02T13:34:38.228Z,100067.44
2023-04-02T13:38:40.992Z,100087.81
2023-04-02T13:42:44.492Z,100076.41
2023-04-02T13:46:47.495Z,100085.94
2023-04-02T13:50:49.142Z,100092.66
2023-04-02T13:54:59.280Z,100104.22
2023-04-02T13:59:01.741Z,100103.91
2023-04-02T14:03:08.359Z,100110.28
2023-04-02T14:07:47.075Z,100118.94
2023-04-02T14:12:10.962Z,100129.56
2023-04-02T14:16:39.140Z,100137.97
2023-04-02T14:20:55.957Z,100142.13
2023-04-02T14:25:22.132Z,100151.00
2023-04-02T14:29:31.732Z,100155.66
2023-04-02T14:33:48.721Z,100162.16
2023-04-02T14:38:02.297Z,100158.19
2023-04-02T14:42:19.336Z,100161.47
2023-04-02T14:46:29.304Z,100168.88
2023-04-02T14:50:38.152Z,100174.75
2023-04-02T14:55:04.424Z,100165.97
2023-04-02T14:59:11.688Z,100185.69
2023-04-02T15:03:23.375Z,100194.16
2023-04-02T15:07:33.534Z,100197.34
2023-04-02T15:11:43.478Z,100208.56
2023-04-02T15:16:20.208Z,100204.78
2023-04-02T15:20:22.268Z,100206.03
2023-04-02T15:24:39.168Z,100216.22
2023-04-02T15:28:55.487Z,100230.97
2023-04-02T15:33:23.437Z,100222.59
2023-04-02T15:37:35.727Z,100225.50
2023-04-02T15:42:01.752Z,100228.25
2023-04-02T15:46:19.888Z,100229.97
2023-04-02T15:50:49.804Z,100242.81
2023-04-02T15:55:22.690Z,100254.16
2023-04-02T15:59:40.145Z,100266.00
2023-04-02T16:04:04.265Z,100263.44
2023-04-02T16:08:12.250Z,100269.97
2023-04-02T16:12:17.553Z,100278.19
2023-04-02T16:16:25.372Z,100285.13
2023-04-02T16:20:32.909Z,100291.25
2023-04-02T16:24:35.036Z,100295.25
2023-04-02T16:28:59.808Z,100304.50
2023-04-02T16:33:26.234Z,100305.75
2023-04-02T16:37:46.762Z,100318.81
2023-04-02T16:42:11.566Z,100324.94
2023-04-02T16:46:51.768Z,100330.84
2023-04-02T16:51:02.476Z,100348.09
2023-04-02T16:55:40.149Z,100351.44
2023-04-02T16:59:52.000Z,100363.22
2023-04-02T17:04:15.509Z,100364.25
2023-04-02T17:08:27.442Z,100382.97
2023-04-02T17:12:39.729Z,100385.44
2023-04-02T17:16:51.539Z,100406.22
2023-04-02T17:20:54.105Z,100410.16
2023-04-02T17:25:01.733Z,100421.53
2023-04-02T17:29:09.418Z,100432.88
2023-04-02T17:33:16.529Z,100433.06
2023-04-02T17:37:27.774Z,100442.09
2023-04-02T17:41:37.256Z,100446.25
2023-04-02T17:45:52.443Z,100451.72
2023-04-02T17:50:03.921Z,100455.25
2023-04-02T17:54:17.632Z,100464.31
2023-04-02T17:58:36.610Z,100483.03
2023-04-02T18:02:59.398Z,100492.47
2023-04-02T18:07:13.234Z,100501.28
2023-04-02T18:11:47.642Z,100508.56
2023-04-02T18:15:57.109Z,100516.31
2023-04-02T18:20:19.434Z,100523.69
2023-04-02T18:24:56.608Z,100528.50
2023-04-02T18:29:31.128Z,100531.63
2023-04-02T18:33:52.427Z,100546.06
2023-04-02T18:38:19.049Z,100557.00
2023-04-02T18:42:23.672Z,100557.41
2023-04-02T18:46:42.873Z,100567.44
2023-04-02T18:50:48.107Z,100581.31
2023-04-02T18:54:55.573Z,100589.59
2023-04-02T18:59:10.070Z,100594.69
2023-04-02T19:03:33.060Z,100622.19
2023-04-02T19:07:40.789Z,100616.91
2023-04-02T19:11:42.539Z,100630.50
2023-04-02T19:16:09.226Z,100623.16
2023-04-02T19:20:10.986Z,100632.66
2023-04-02T19:24:27.464Z,100640.25
2023-04-02T19:28:50.099Z,100646.78
2023-04-02T19:33:10.296Z,100655.47
2023-04-02T19:37:36.812Z,100666.06
2023-04-02T19:41:48.709Z,100668.41
2023-04-02T19:45:52.646Z,100673.31
2023-04-02T19:49:55.720Z,100677.66
2023-04-02T19:53:57.468Z,100674.94
2023-04-02T19:58:08.979Z,100679.78
2023-04-02T20:02:16.134Z,100687.34
2023-04-02T20:06:18.459Z,100689.25
2023-04-02T20:10:21.928Z,100690.00
2023-04-02T20:14:26.159Z,100695.00
2023-04-02T20:18:29.698Z,100693.03
2023-04-02T20:22:31.401Z,100701.88
2023-04-02T20:26:34.567Z,100703.78
2023-04-02T20:30:36.518Z,100706.69
2023-04-02T20:34:38.772Z,100719.03
2023-04-02T20:38:40.703Z,100720.25
2023-04-02T20:42:42.335Z,100732.22
2023-04-02T20:46:44.174Z,100742.09
2023-04-02T20:50:48.233Z,100748.69
2023-04-02T20:54:50.698Z,100745.41
2023-04-02T20:58:52.701Z,100743.31
2023-04-02T21:02:54.469Z,100750.66
2023-04-02T21:06:57.626Z,100763.84
2023-04-02T21:11:05.842Z,100771.47
2023-04-02T21:15:08.229Z,100768.56
2023-04-02T21:19:10.704Z,100776.53
2023-04-02T21:23:12.365Z,100774.94
2023-04-02T21:27:14.029Z,100774.09
2023-04-02T21:31:19.149Z,100778.91
2023-04-02T21:35:20.913Z,100773.56
2023-04-02T21:39:24.351Z,100777.81
2023-04-02T21:43:25.987Z,100773.34
2023-04-02T21:47:28.780Z,100775.50
2023-04-02T21:51:32.956Z,100772.19
2023-04-02T21:55:34.846Z,100776.81
2023-04-02T21:59:36.615Z,100771.19
2023-04-02T22:03:38.565Z,100775.44
2023-04-02T22:07:40.257Z,100779.56
2023-04-02T22:11:59.291Z,100777.88
2023-04-02T22:16:07.510Z,100777.19
2023-04-02T22:20:10.830Z,100781.34
2023-04-02T22:24:14.950Z,100784.59
2023-04-02T22:28:16.583Z,100780.25
2023-04-02T22:32:18.271Z,100789.56
2023-04-02T22:36:22.635Z,100783.31
2023-04-02T22:40:24.656Z,100786.78
2023-04-02T22:44:26.555Z,100796.53
2023-04-02T22:48:28.318Z,100797.09
2023-04-02T22:52:30.090Z,100797.47
2023-04-02T22:56:32.993Z,100794.91
2023-04-02T23:00:35.090Z,100797.69
2023-04-02T23:04:37.248Z,100798.59
2023-04-02T23:08:40.033Z,100801.25
2023-04-02T23:12:41.708Z,100792.50
2023-04-02T23:16:43.362Z,100795.78
2023-04-02T23:20:45.063Z,100793.44
2023-04-02T23:24:47.208Z,100797.06
2023-04-02T23:28:50.345Z,100796.94
2023-04-02T23:32:52.082Z,100794.06
2023-04-02T23:36:53.834Z,100797.47
2023-04-02T23:40:55.621Z,100800.56
2023-04-02T23:44:57.266Z,100795.28
2023-04-02T23:49:00.039Z,100801.25
2023-04-02T23:53:01.714Z,100802.13
2023-04-02T23:57:03.400Z,100801.13
